Time;durP1;ratioP1;P1;durP2;ratioP2;P2;SDS_P1;SDS_P2;PMS_P1;PMS_P2;Temp;Humidity;BMP_temperature;BMP_pressure;BME280_temperature;BME280_humidity;BME280_pressure;Samples;Min_cycle;Max_cycle;Signal;HPM_P1;HPM_P2
2021/06/19 00:00:12;;;;;;;10.40;5.22;;;615.20;1484.80;;;;;;5093008;28;20054;-61
2021/06/19 00:02:38;;;;;;;7.45;4.90;;;615.20;1484.80;;;;;;5093374;28;20035;-62
2021/06/19 00:05:04;;;;;;;6.70;4.57;;;615.10;1484.80;;;;;;5093133;28;20465;-61
2021/06/19 00:07:30;;;;;;;12.68;4.90;;;615.10;1484.80;;;;;;5092564;28;20032;-63
2021/06/19 00:09:56;;;;;;;9.38;5.00;;;615.10;1484.80;;;;;;5093433;28;20415;-61
2021/06/19 00:12:21;;;;;;;11.05;4.65;;;615.10;1484.80;;;;;;5093184;28;20031;-62
2021/06/19 00:14:47;;;;;;;11.20;4.80;;;615.10;1484.80;;;;;;5092674;28;20097;-61
2021/06/19 00:17:14;;;;;;;14.50;5.65;;;615.10;1484.80;;;;;;5092985;28;20040;-61
2021/06/19 00:19:40;;;;;;;10.63;5.72;;;615.10;1484.80;;;;;;5093071;28;20024;-61
2021/06/19 00:22:06;;;;;;;15.15;5.35;;;615.10;1484.80;;;;;;5092463;28;20024;-61
2021/06/19 00:24:36;;;;;;;12.63;5.43;;;615.10;1484.80;;;;;;5092990;28;20030;-63
2021/06/19 00:27:03;;;;;;;11.00;5.13;;;615.10;1484.80;;;;;;5093015;28;20020;-61
2021/06/19 00:29:30;;;;;;;12.45;5.68;;;615.10;1484.80;;;;;;5092679;28;20040;-63
2021/06/19 00:31:56;;;;;;;14.50;5.38;;;615.10;1484.80;;;;;;5092924;28;20111;-61
2021/06/19 00:34:22;;;;;;;9.65;5.03;;;615.10;1484.80;;;;;;5092992;28;20047;-61
2021/06/19 00:36:47;;;;;;;5.78;4.43;;;615.00;1484.80;;;;;;5092243;28;20024;-61
2021/06/19 00:39:13;;;;;;;6.95;4.30;;;615.00;1484.80;;;;;;5093258;28;20024;-62
2021/06/19 00:41:39;;;;;;;8.32;5.00;;;615.00;1484.80;;;;;;5092920;28;20020;-61
2021/06/19 00:44:14;;;;;;;9.27;5.50;;;615.00;1484.80;;;;;;5092582;28;20108;-61
2021/06/19 00:46:39;;;;;;;12.32;6.57;;;615.00;1484.80;;;;;;5092782;28;20033;-61
2021/06/19 00:49:05;;;;;;;10.43;6.13;;;615.00;1484.80;;;;;;5092724;28;20055;-65
2021/06/19 00:51:31;;;;;;;16.63;5.80;;;614.90;1484.80;;;;;;5092482;28;20034;-61
2021/06/19 00:53:56;;;;;;;10.00;5.30;;;614.90;1484.80;;;;;;5092642;28;20031;-62
2021/06/19 00:56:22;;;;;;;13.88;5.32;;;614.90;1484.80;;;;;;5092787;28;20024;-61
2021/06/19 00:58:48;;;;;;;13.10;5.15;;;614.90;1484.80;;;;;;5092368;28;20024;-62
2021/06/19 01:01:14;;;;;;;11.15;4.50;;;614.90;1484.80;;;;;;5092723;28;20461;-62
2021/06/19 01:03:40;;;;;;;10.80;6.15;;;614.90;1484.80;;;;;;5092810;28;20024;-61
2021/06/19 01:06:06;;;;;;;11.88;4.65;;;614.90;1484.80;;;;;;5095479;28;20016;-60
2021/06/19 01:08:31;;;;;;;7.20;4.75;;;614.80;1510.40;;;;;;5096349;28;20060;-61
2021/06/19 01:10:57;;;;;;;10.65;5.78;;;614.80;1484.80;;;;;;5078178;28;20625;-60
2021/06/19 01:13:23;;;;;;;9.88;5.05;;;614.80;1510.40;;;;;;5096234;28;20056;-61
2021/06/19 01:15:49;;;;;;;6.63;5.15;;;614.80;1510.40;;;;;;5096236;28;20101;-61
2021/06/19 01:18:15;;;;;;;10.20;5.07;;;614.80;1510.40;;;;;;5096563;28;20028;-63
2021/06/19 01:20:41;;;;;;;11.20;5.50;;;614.70;1510.40;;;;;;5095937;28;20380;-62
2021/06/19 01:23:06;;;;;;;5.75;4.65;;;614.70;1510.40;;;;;;5095781;28;20031;-61
2021/06/19 01:25:34;;;;;;;10.32;4.57;;;614.70;1510.40;;;;;;5096008;28;20115;-61
2021/06/19 01:28:00;;;;;;;13.38;4.95;;;614.70;1510.40;;;;;;5096050;28;20035;-62
2021/06/19 01:30:28;;;;;;;10.13;5.25;;;614.60;1510.40;;;;;;5095763;28;20089;-61
2021/06/19 01:32:54;;;;;;;6.72;4.90;;;614.60;1510.40;;;;;;5095720;28;20052;-62
2021/06/19 01:35:21;;;;;;;8.50;4.90;;;614.60;1510.40;;;;;;5096343;28;20373;-60
2021/06/19 01:37:56;;;;;;;8.00;4.90;;;614.60;1510.40;;;;;;5095405;28;20016;-61
2021/06/19 01:40:27;;;;;;;14.23;5.90;;;614.60;1510.40;;;;;;5095802;28;20028;-61
2021/06/19 01:42:54;;;;;;;12.13;4.70;;;614.60;1510.40;;;;;;5095723;28;20032;-61
2021/06/19 01:45:32;;;;;;;12.00;4.72;;;614.60;1510.40;;;;;;5095271;28;20136;-62
2021/06/19 01:48:05;;;;;;;7.63;5.00;;;614.60;1510.40;;;;;;5095703;28;20115;-61
2021/06/19 01:50:32;;;;;;;12.75;5.05;;;614.60;1510.40;;;;;;5095380;28;20035;-61
2021/06/19 01:52:59;;;;;;;11.40;4.88;;;614.50;1510.40;;;;;;5095564;28;20032;-61
2021/06/19 01:55:25;;;;;;;6.72;4.75;;;614.50;1536.00;;;;;;5095504;28;20020;-62
2021/06/19 01:57:53;;;;;;;7.15;4.80;;;614.50;1510.40;;;;;;5095293;28;20040;-61
2021/06/19 02:00:24;;;;;;;6.53;4.50;;;614.50;1536.00;;;;;;5095650;28;20028;-61
2021/06/19 02:02:51;;;;;;;10.15;4.78;;;614.40;1536.00;;;;;;5095322;28;20470;-61
2021/06/19 02:05:18;;;;;;;12.13;4.40;;;614.40;1536.00;;;;;;5094912;28;20035;-63
2021/06/19 02:07:52;;;;;;;14.20;5.72;;;614.40;1536.00;;;;;;5095420;28;20043;-60
2021/06/19 02:10:25;;;;;;;7.60;4.93;;;614.40;1536.00;;;;;;5095338;28;20465;-61
2021/06/19 02:12:50;;;;;;;10.00;4.90;;;614.40;1536.00;;;;;;5094639;28;20115;-61
2021/06/19 02:15:17;;;;;;;7.22;5.30;;;614.40;1536.00;;;;;;5094932;28;20099;-62
2021/06/19 02:17:43;;;;;;;7.20;4.80;;;614.40;1536.00;;;;;;5095055;28;20032;-62
2021/06/19 02:20:10;;;;;;;9.35;4.78;;;614.40;1536.00;;;;;;5094465;28;20023;-61
2021/06/19 02:22:37;;;;;;;9.38;5.13;;;614.40;1536.00;;;;;;5094962;28;20493;-61
2021/06/19 02:25:06;;;;;;;9.35;5.10;;;614.40;1536.00;;;;;;5095129;28;20104;-61
2021/06/19 02:27:32;;;;;;;7.55;5.00;;;614.40;1536.00;;;;;;5094304;28;20063;-61
2021/06/19 02:29:57;;;;;;;10.63;4.50;;;614.40;1536.00;;;;;;5095198;28;20047;-61
2021/06/19 02:32:23;;;;;;;6.88;4.38;;;614.40;1536.00;;;;;;5094716;28;20123;-61
2021/06/19 02:34:49;;;;;;;7.80;4.60;;;614.40;1536.00;;;;;;5094718;28;20031;-61
2021/06/19 02:37:15;;;;;;;6.75;4.65;;;614.40;1536.00;;;;;;5094901;28;20039;-62
2021/06/19 02:39:41;;;;;;;7.18;4.38;;;614.40;1536.00;;;;;;5094731;28;20595;-62
2021/06/19 02:42:07;;;;;;;6.50;4.88;;;589.70;1536.00;;;;;;5094513;28;20035;-61
2021/06/19 02:44:33;;;;;;;8.75;4.28;;;589.70;1536.00;;;;;;5094420;28;20032;-63
2021/06/19 02:46:58;;;;;;;8.20;4.53;;;589.70;1536.00;;;;;;5094504;28;20042;-61
2021/06/19 02:49:24;;;;;;;10.73;4.43;;;589.70;1536.00;;;;;;5094297;28;20077;-63
2021/06/19 02:51:50;;;;;;;8.73;4.63;;;589.70;1536.00;;;;;;5093680;28;20025;-60
2021/06/19 02:54:15;;;;;;;5.63;4.22;;;589.70;1536.00;;;;;;5094501;28;20030;-61
2021/06/19 02:56:41;;;;;;;14.05;4.97;;;589.70;1536.00;;;;;;5094501;28;20024;-61
2021/06/19 02:59:07;;;;;;;12.13;5.53;;;589.60;1561.60;;;;;;5093961;28;20024;-61
2021/06/19 03:01:32;;;;;;;7.05;4.40;;;589.60;1561.60;;;;;;5094157;28;20020;-61
2021/06/19 03:03:58;;;;;;;10.77;5.88;;;589.60;1561.60;;;;;;5094176;28;20024;-61
2021/06/19 03:06:24;;;;;;;7.85;5.00;;;589.50;1561.60;;;;;;5093878;28;20020;-61
2021/06/19 03:08:50;;;;;;;7.45;5.20;;;589.50;1561.60;;;;;;5094285;28;20032;-64
2021/06/19 03:11:15;;;;;;;7.85;5.30;;;589.50;1561.60;;;;;;5094404;28;20369;-60
2021/06/19 03:13:41;;;;;;;9.70;4.88;;;589.50;1587.20;;;;;;5093856;28;20036;-60
2021/06/19 03:16:07;;;;;;;7.32;5.05;;;589.50;1587.20;;;;;;5094052;28;20074;-62
2021/06/19 03:18:32;;;;;;;7.97;5.00;;;589.40;1587.20;;;;;;5093981;28;20103;-61
2021/06/19 03:20:58;;;;;;;12.20;5.53;;;589.40;1587.20;;;;;;5093158;28;20032;-61
2021/06/19 03:23:24;;;;;;;9.00;5.28;;;589.40;1587.20;;;;;;5093973;28;20047;-62
2021/06/19 03:25:49;;;;;;;8.32;5.65;;;589.30;1587.20;;;;;;5093785;28;20095;-61
2021/06/19 03:28:15;;;;;;;9.45;6.40;;;589.30;1612.80;;;;;;5092515;28;20043;-61
2021/06/19 03:30:45;;;;;;;12.40;6.13;;;589.30;1587.20;;;;;;5093762;28;20024;-62
2021/06/19 03:33:15;;;;;;;15.60;6.35;;;589.30;1612.80;;;;;;5093446;28;20048;-61
2021/06/19 03:35:41;;;;;;;17.48;6.32;;;589.30;1612.80;;;;;;5093274;28;20035;-61
2021/06/19 03:38:07;;;;;;;8.77;6.43;;;589.30;1612.80;;;;;;5093343;28;20052;-61
2021/06/19 03:40:35;;;;;;;14.52;6.78;;;589.30;1612.80;;;;;;5093721;28;20024;-61
2021/06/19 03:43:02;;;;;;;18.92;6.13;;;589.30;1612.80;;;;;;5093087;28;20057;-61
2021/06/19 03:45:32;;;;;;;14.45;5.68;;;589.30;1612.80;;;;;;5094387;28;20031;-62
2021/06/19 03:47:58;;;;;;;12.32;5.95;;;589.30;1612.80;;;;;;5094287;28;20055;-62
2021/06/19 03:50:26;;;;;;;6.32;5.57;;;589.30;1612.80;;;;;;5093920;28;20377;-62
2021/06/19 03:52:53;;;;;;;15.35;5.50;;;589.30;1612.80;;;;;;5094281;28;20130;-61
2021/06/19 03:55:19;;;;;;;11.57;5.65;;;589.30;1612.80;;;;;;5094034;28;20016;-62
2021/06/19 03:57:45;;;;;;;8.10;5.75;;;589.30;1612.80;;;;;;5094098;28;20554;-62
2021/06/19 04:00:13;;;;;;;7.63;5.25;;;589.30;1612.80;;;;;;5094227;28;20028;-64
2021/06/19 04:02:39;;;;;;;12.20;5.90;;;589.30;1612.80;;;;;;5094150;28;20031;-62
2021/06/19 04:05:07;;;;;;;12.50;5.60;;;589.30;1612.80;;;;;;5093927;28;20024;-62
2021/06/19 04:07:33;;;;;;;10.43;5.43;;;589.30;1638.40;;;;;;5094049;28;20415;-63
2021/06/19 04:09:59;;;;;;;18.27;6.30;;;589.30;1638.40;;;;;;5093967;28;20031;-61
2021/06/19 04:12:25;;;;;;;11.43;5.45;;;589.30;1638.40;;;;;;5093907;28;20024;-62
2021/06/19 04:14:51;;;;;;;7.93;6.22;;;589.30;1638.40;;;;;;5094247;28;20035;-61
2021/06/19 04:17:17;;;;;;;11.60;6.18;;;589.30;1638.40;;;;;;5093895;28;20031;-62
2021/06/19 04:19:44;;;;;;;14.38;7.43;;;589.40;1638.40;;;;;;5093778;28;20020;-63
2021/06/19 04:22:11;;;;;;;17.73;6.57;;;589.40;1638.40;;;;;;5093712;28;20063;-61
2021/06/19 04:24:38;;;;;;;10.23;6.30;;;589.40;1638.40;;;;;;5094349;28;20023;-66
2021/06/19 04:27:04;;;;;;;13.95;7.20;;;589.40;1612.80;;;;;;5093636;28;20123;-62
2021/06/19 04:29:31;;;;;;;11.38;5.95;;;589.50;1638.40;;;;;;5093885;28;20024;-61
2021/06/19 04:31:59;;;;;;;14.30;6.57;;;589.50;1638.40;;;;;;5093559;28;20048;-65
2021/06/19 04:34:24;;;;;;;11.68;6.82;;;589.50;1612.80;;;;;;5093562;28;20024;-65
2021/06/19 04:36:51;;;;;;;8.82;5.68;;;589.60;1638.40;;;;;;5094145;28;20020;-61
2021/06/19 04:39:17;;;;;;;11.57;6.55;;;589.60;1638.40;;;;;;5095755;28;20526;-66
2021/06/19 04:41:50;;;;;;;11.25;6.85;;;589.70;1638.40;;;;;;5098070;28;20047;-64
2021/06/19 04:46:51;;;;;;;9.60;6.55;;;614.40;1638.40;;;;;;5097591;28;20032;-64
2021/06/19 04:49:18;;;;;;;17.17;7.25;;;614.50;1612.80;;;;;;5097944;28;20029;-61
2021/06/19 04:51:44;;;;;;;19.15;8.20;;;614.60;1612.80;;;;;;5097762;28;20386;-62
2021/06/19 04:54:12;;;;;;;7.40;6.68;;;614.70;1612.80;;;;;;5097465;28;20077;-61
2021/06/19 04:56:40;;;;;;;14.73;6.93;;;614.80;1612.80;;;;;;5096469;28;20024;-62
2021/06/19 04:59:06;;;;;;;24.08;6.72;;;614.90;1587.20;;;;;;5079372;28;20069;-61
2021/06/19 05:01:32;;;;;;;10.30;6.43;;;615.10;1587.20;;;;;;5075750;28;20385;-63
2021/06/19 05:04:00;;;;;;;13.75;6.40;;;615.30;1561.60;;;;;;5096779;28;20024;-64
2021/06/19 05:06:26;;;;;;;14.05;6.72;;;640.00;1536.00;;;;;;5097324;28;20023;-64
2021/06/19 05:08:52;;;;;;;11.90;6.10;;;640.10;1536.00;;;;;;5097906;28;20028;-63
2021/06/19 05:11:17;;;;;;;13.98;6.32;;;640.30;1510.40;;;;;;5097304;28;20024;-61
2021/06/19 05:13:43;;;;;;;14.45;6.00;;;640.50;1484.80;;;;;;5079061;28;20028;-62
2021/06/19 05:16:09;;;;;;;15.98;5.80;;;640.60;1459.20;;;;;;5097266;28;20453;-62
2021/06/19 05:18:34;;;;;;;17.75;6.22;;;640.80;1459.20;;;;;;5096839;28;20054;-61
2021/06/19 05:21:00;;;;;;;11.50;5.32;;;665.60;1459.20;;;;;;5097123;28;20028;-62
2021/06/19 05:23:26;;;;;;;9.55;5.60;;;665.70;1459.20;;;;;;5097106;28;20024;-64
2021/06/19 05:25:51;;;;;;;13.27;5.93;;;665.90;1433.60;;;;;;5096902;28;20135;-62
2021/06/19 05:28:17;;;;;;;12.25;5.43;;;666.10;1433.60;;;;;;5097090;28;20047;-62
2021/06/19 05:30:43;;;;;;;12.48;5.45;;;666.20;1408.00;;;;;;5097294;28;20022;-62
2021/06/19 05:33:08;;;;;;;9.25;5.10;;;666.30;1408.00;;;;;;5096465;28;20148;-61
2021/06/19 05:35:34;;;;;;;7.50;5.25;;;666.40;1408.00;;;;;;5078422;28;20047;-61
2021/06/19 05:38:00;;;;;;;10.98;5.20;;;666.50;1408.00;;;;;;5096506;28;20047;-61
2021/06/19 05:40:26;;;;;;;9.75;5.47;;;691.20;1408.00;;;;;;5096816;28;20110;-62
2021/06/19 05:42:54;;;;;;;8.13;5.53;;;691.30;1408.00;;;;;;5096629;28;20027;-62
2021/06/19 05:45:20;;;;;;;7.45;5.47;;;691.40;1382.40;;;;;;5096627;28;20020;-62
2021/06/19 05:47:46;;;;;;;10.73;5.70;;;691.50;1382.40;;;;;;5096721;28;20039;-68
2021/06/19 05:50:17;;;;;;;8.25;4.95;;;691.70;1382.40;;;;;;5095823;28;20051;-68
2021/06/19 05:52:43;;;;;;;10.25;6.30;;;691.80;1356.80;;;;;;5096521;28;20477;-62
2021/06/19 05:55:10;;;;;;;10.25;5.78;;;691.90;1356.80;;;;;;5096506;28;20028;-63
2021/06/19 05:57:36;;;;;;;8.63;5.60;;;716.80;1382.40;;;;;;5096436;28;20031;-63
2021/06/19 06:00:07;;;;;;;12.35;5.55;;;716.80;1356.80;;;;;;5096354;28;20035;-62
2021/06/19 06:02:32;;;;;;;7.40;5.53;;;717.00;1356.80;;;;;;5095959;28;20024;-61
2021/06/19 06:04:58;;;;;;;7.25;5.25;;;717.10;1331.20;;;;;;5096321;28;20039;-62
2021/06/19 06:07:24;;;;;;;8.43;5.25;;;717.30;1331.20;;;;;;5096228;28;20040;-62
2021/06/19 06:09:49;;;;;;;12.32;6.10;;;717.40;1331.20;;;;;;5096123;28;20020;-61
2021/06/19 06:12:15;;;;;;;10.18;5.55;;;717.50;1331.20;;;;;;5096339;28;20024;-63
2021/06/19 06:14:41;;;;;;;7.47;4.53;;;717.50;1331.20;;;;;;5095750;28;20028;-64
2021/06/19 06:17:07;;;;;;;8.07;4.95;;;717.60;1305.60;;;;;;5096012;28;20028;-62
2021/06/19 06:19:33;;;;;;;7.53;5.00;;;742.40;1331.20;;;;;;5095793;28;20027;-62
2021/06/19 06:21:59;;;;;;;6.05;4.60;;;742.50;1331.20;;;;;;5095841;28;20031;-63
2021/06/19 06:24:24;;;;;;;6.90;4.82;;;742.60;1305.60;;;;;;5095772;28;20409;-62
2021/06/19 06:26:50;;;;;;;4.72;4.15;;;742.70;1305.60;;;;;;5095668;28;20024;-62
2021/06/19 06:29:16;;;;;;;15.98;4.93;;;742.90;1280.00;;;;;;5095847;28;20102;-62
2021/06/19 06:31:42;;;;;;;8.18;4.55;;;743.00;1280.00;;;;;;5095502;28;20027;-62
2021/06/19 06:34:08;;;;;;;11.40;4.65;;;743.10;1254.40;;;;;;5095671;28;20105;-62
2021/06/19 06:36:33;;;;;;;9.10;4.65;;;743.30;1254.40;;;;;;5095594;28;20027;-63
2021/06/19 06:39:03;;;;;;;15.45;4.70;;;768.10;1228.80;;;;;;5095422;28;20024;-64
2021/06/19 06:41:29;;;;;;;10.23;4.70;;;768.20;1203.20;;;;;;5095283;28;20020;-62
2021/06/19 06:43:55;;;;;;;9.57;4.30;;;768.40;1203.20;;;;;;5095564;28;20024;-61
2021/06/19 06:46:21;;;;;;;9.80;4.00;;;768.50;1203.20;;;;;;5094377;28;20035;-62
2021/06/19 06:48:48;;;;;;;5.80;4.03;;;768.70;1177.60;;;;;;5094541;28;20504;-61
2021/06/19 06:51:14;;;;;;;9.85;4.22;;;768.80;1177.60;;;;;;5094652;28;20015;-61
2021/06/19 06:53:40;;;;;;;9.00;4.40;;;793.60;1177.60;;;;;;5094716;28;20039;-61
2021/06/19 06:56:05;;;;;;;14.23;4.75;;;793.70;1152.00;;;;;;5094587;28;20016;-62
2021/06/19 06:58:31;;;;;;;7.88;3.50;;;793.80;1152.00;;;;;;5094700;28;20439;-65
2021/06/19 07:00:57;;;;;;;15.45;4.07;;;794.10;1126.40;;;;;;5098199;28;20529;-62
2021/06/19 07:03:23;;;;;;;11.20;4.25;;;794.10;1126.40;;;;;;5114209;28;20055;-63
2021/06/19 07:05:49;;;;;;;18.33;4.18;;;794.30;1126.40;;;;;;5115285;28;20443;-62
2021/06/19 07:08:15;;;;;;;15.52;4.47;;;794.40;1126.40;;;;;;5115914;28;20119;-62
2021/06/19 07:10:41;;;;;;;6.18;3.47;;;819.20;1126.40;;;;;;5115356;28;20035;-63
2021/06/19 07:13:06;;;;;;;11.07;3.75;;;819.40;1075.20;;;;;;5115174;28;20035;-62
2021/06/19 07:15:32;;;;;;;18.17;5.07;;;819.50;1075.20;;;;;;5115262;28;20035;-78
2021/06/19 07:17:58;;;;;;;12.02;4.20;;;819.60;1049.60;;;;;;5114894;28;20031;-62
2021/06/19 07:20:24;;;;;;;10.23;3.97;;;819.70;1049.60;;;;;;5114463;28;20088;-79
2021/06/19 07:22:58;;;;;;;12.70;4.53;;;819.90;1049.60;;;;;;5127593;27;20408;-62
2021/06/19 07:25:23;;;;;;;26.15;5.00;;;820.10;1049.60;;;;;;5111666;28;20056;-65
2021/06/19 07:27:55;;;;;;;31.77;5.60;;;844.80;1049.60;;;;;;5111665;28;20077;-62
2021/06/19 07:30:22;;;;;;;15.02;4.50;;;844.90;1049.60;;;;;;5111581;28;20024;-62
2021/06/19 07:32:49;;;;;;;12.20;4.60;;;845.00;1049.60;;;;;;5111130;28;20051;-67
2021/06/19 07:35:15;;;;;;;29.58;5.00;;;845.10;1049.60;;;;;;5111297;28;20035;-61
2021/06/19 07:37:41;;;;;;;45.72;5.88;;;845.30;1024.00;;;;;;5111662;28;20024;-77
2021/06/19 07:40:08;;;;;;;30.92;5.22;;;845.50;1024.00;;;;;;5111796;28;20466;-62
2021/06/19 07:42:36;;;;;;;17.67;4.68;;;845.50;1024.00;;;;;;5111417;28;20036;-62
2021/06/19 07:45:03;;;;;;;23.92;5.30;;;845.70;1024.00;;;;;;5110308;28;20461;-65
2021/06/19 07:47:29;;;;;;;19.92;4.80;;;870.40;998.40;;;;;;5110980;28;20031;-61
2021/06/19 07:49:55;;;;;;;17.98;5.00;;;870.50;972.80;;;;;;5109459;28;20030;-68
2021/06/19 07:52:21;;;;;;;21.00;4.63;;;870.60;972.80;;;;;;5110932;28;20028;-62
2021/06/19 07:54:48;;;;;;;11.90;3.85;;;870.60;972.80;;;;;;5110875;28;20047;-64
2021/06/19 07:57:14;;;;;;;11.52;4.53;;;870.70;972.80;;;;;;5110737;28;20024;-61
2021/06/19 07:59:40;;;;;;;13.13;4.25;;;870.80;972.80;;;;;;5110535;28;20065;-64
2021/06/19 08:02:23;;;;;;;18.40;4.70;;;870.90;947.20;;;;;;5110843;28;20040;-66
2021/06/19 08:04:49;;;;;;;11.15;3.83;;;871.00;947.20;;;;;;5110726;28;20032;-62
2021/06/19 08:07:15;;;;;;;9.13;3.90;;;871.20;921.60;;;;;;5110738;28;20031;-64
2021/06/19 08:09:41;;;;;;;6.72;3.65;;;871.20;921.60;;;;;;5110539;28;20028;-62
2021/06/19 08:12:07;;;;;;;5.85;3.15;;;896.00;921.60;;;;;;5110502;28;20107;-62
2021/06/19 08:14:32;;;;;;;7.25;3.83;;;896.00;896.00;;;;;;5111386;28;20024;-62
2021/06/19 08:17:03;;;;;;;10.75;4.00;;;896.10;921.60;;;;;;5110549;28;20050;-62
2021/06/19 08:19:29;;;;;;;11.55;3.60;;;896.30;896.00;;;;;;5110472;28;20508;-61
2021/06/19 08:21:54;;;;;;;9.82;3.42;;;896.60;921.60;;;;;;5110731;28;20139;-63
2021/06/19 08:24:20;;;;;;;37.38;4.50;;;896.70;896.00;;;;;;5110908;28;20023;-62
2021/06/19 08:26:46;;;;;;;19.30;4.47;;;896.60;870.40;;;;;;5110290;28;20024;-62
2021/06/19 08:29:12;;;;;;;15.50;3.88;;;896.30;870.40;;;;;;5110542;28;20070;-62
2021/06/19 08:31:39;;;;;;;26.40;4.35;;;896.20;870.40;;;;;;5110193;28;20035;-62
2021/06/19 08:34:06;;;;;;;21.38;3.97;;;896.10;870.40;;;;;;5095119;28;20024;-62
2021/06/19 08:36:32;;;;;;;18.33;3.92;;;896.20;870.40;;;;;;5095624;28;20082;-67
2021/06/19 08:38:59;;;;;;;15.45;3.90;;;896.30;870.40;;;;;;5096396;28;20031;-62
2021/06/19 08:41:25;;;;;;;14.70;4.18;;;896.60;870.40;;;;;;5095265;28;20458;-62
2021/06/19 08:43:52;;;;;;;18.77;4.25;;;896.70;870.40;;;;;;5094879;28;20103;-62
2021/06/19 08:46:22;;;;;;;16.50;3.80;;;896.60;870.40;;;;;;5095659;28;20362;-62
2021/06/19 08:48:52;;;;;;;24.40;4.20;;;896.50;870.40;;;;;;5095873;28;20027;-65
2021/06/19 08:51:19;;;;;;;15.18;3.72;;;896.60;870.40;;;;;;5095491;28;20058;-62
2021/06/19 08:53:45;;;;;;;13.57;3.75;;;896.70;844.80;;;;;;5096222;28;20077;-62
2021/06/19 08:56:14;;;;;;;11.60;3.60;;;896.80;870.40;;;;;;5096531;28;20108;-62
2021/06/19 08:58:41;;;;;;;9.60;2.60;;;896.90;844.80;;;;;;5096139;28;20377;-62
2021/06/19 09:01:07;;;;;;;6.53;3.13;;;921.60;844.80;;;;;;5096284;28;20032;-62
2021/06/19 09:03:33;;;;;;;6.95;2.95;;;921.70;844.80;;;;;;5096426;28;20466;-62
2021/06/19 09:06:21;;;;;;;10.75;3.88;;;921.60;819.20;;;;;;5096239;28;20473;-68
2021/06/19 09:09:01;;;;;;;11.20;3.10;;;921.70;819.20;;;;;;5096079;28;20020;-61
2021/06/19 09:11:40;;;;;;;7.85;2.75;;;921.90;819.20;;;;;;5096169;28;20351;-62
2021/06/19 09:14:15;;;;;;;10.85;3.17;;;922.10;819.20;;;;;;5096166;28;20382;-62
2021/06/19 09:16:43;;;;;;;10.50;3.05;;;922.20;819.20;;;;;;5095917;28;20016;-62
2021/06/19 09:19:27;;;;;;;11.15;3.03;;;922.40;793.60;;;;;;5095942;28;20031;-62
2021/06/19 09:22:19;;;;;;;5.88;2.75;;;922.40;768.00;;;;;;5095599;28;20052;-62
2021/06/19 09:24:47;;;;;;;3.83;2.60;;;922.20;793.60;;;;;;5095755;28;20032;-62
2021/06/19 09:27:34;;;;;;;8.43;2.85;;;922.30;793.60;;;;;;5095893;28;20028;-65
2021/06/19 09:30:12;;;;;;;3.65;2.47;;;922.50;768.00;;;;;;5095799;28;20020;-62
2021/06/19 09:32:49;;;;;;;8.82;3.17;;;922.50;768.00;;;;;;5095772;28;20047;-63
2021/06/19 09:35:26;;;;;;;5.70;2.72;;;947.20;768.00;;;;;;5095780;28;20035;-62
2021/06/19 09:37:55;;;;;;;3.75;2.60;;;947.40;768.00;;;;;;5095689;28;20099;-63
2021/06/19 09:40:21;;;;;;;8.93;3.33;;;947.50;768.00;;;;;;5095659;28;20035;-66
2021/06/19 09:42:47;;;;;;;8.60;2.78;;;947.50;742.40;;;;;;5094686;28;20032;-65
2021/06/19 09:45:20;;;;;;;6.60;2.42;;;947.60;742.40;;;;;;5091204;28;20020;-63
2021/06/19 09:47:46;;;;;;;9.90;2.80;;;947.60;742.40;;;;;;5095328;28;20047;-63
2021/06/19 09:50:12;;;;;;;6.72;2.65;;;947.50;716.80;;;;;;5095376;28;20040;-63
2021/06/19 09:52:38;;;;;;;7.63;2.97;;;947.60;716.80;;;;;;5095325;28;20421;-63
2021/06/19 09:55:10;;;;;;;5.28;2.53;;;947.60;716.80;;;;;;5094794;28;20111;-62
2021/06/19 09:57:49;;;;;;;8.88;2.80;;;947.80;716.80;;;;;;5095149;28;20028;-66
2021/06/19 10:00:17;;;;;;;13.02;3.03;;;947.90;716.80;;;;;;5095351;28;20032;-69
2021/06/19 10:02:44;;;;;;;18.25;3.35;;;972.80;742.40;;;;;;5094817;28;20101;-76
2021/06/19 10:05:11;;;;;;;8.85;2.85;;;972.80;742.40;;;;;;5090843;28;20378;-64
2021/06/19 10:07:38;;;;;;;19.13;3.88;;;972.90;742.40;;;;;;5094254;28;20031;-62
2021/06/19 10:10:13;;;;;;;9.30;2.95;;;973.00;742.40;;;;;;5086897;28;20887;-75
2021/06/19 10:12:40;;;;;;;7.50;2.80;;;973.10;716.80;;;;;;5095247;28;20086;-63
2021/06/19 10:15:12;;;;;;;6.70;3.20;;;973.10;716.80;;;;;;5093529;28;20437;-70
2021/06/19 10:17:44;;;;;;;3.25;2.85;;;973.20;716.80;;;;;;5093997;28;20028;-74
2021/06/19 10:20:12;;;;;;;6.25;2.70;;;973.30;716.80;;;;;;5093127;28;20486;-75
2021/06/19 10:22:41;;;;;;;12.80;2.70;;;973.30;716.80;;;;;;5091944;28;20044;-77
2021/06/19 10:25:10;;;;;;;4.35;2.50;;;973.30;716.80;;;;;;5093142;28;20031;-71
2021/06/19 10:27:47;;;;;;;4.82;2.85;;;973.00;716.80;;;;;;5092318;28;20031;-62
2021/06/19 10:30:14;;;;;;;6.07;2.92;;;972.80;716.80;;;;;;5092999;28;20031;-77
2021/06/19 10:32:50;;;;;;;19.88;4.20;;;972.80;716.80;;;;;;5095134;28;20088;-74
2021/06/19 10:35:21;;;;;;;19.77;4.40;;;972.80;742.40;;;;;;5094062;28;20039;-62
2021/06/19 10:37:49;;;;;;;21.85;3.58;;;972.80;742.40;;;;;;5094315;28;20028;-63
2021/06/19 10:40:18;;;;;;;13.27;3.30;;;972.80;742.40;;;;;;5093822;28;20024;-76
2021/06/19 10:42:44;;;;;;;7.65;3.78;;;948.10;691.20;;;;;;5091053;28;20039;-73
2021/06/19 10:45:22;;;;;;;4.28;3.08;;;947.80;716.80;;;;;;5093230;28;20028;-71
2021/06/19 10:48:12;;;;;;;4.30;2.70;;;947.80;716.80;;;;;;5093766;28;20027;-72
2021/06/19 10:50:41;;;;;;;5.95;2.90;;;948.00;716.80;;;;;;5092777;28;20032;-62
2021/06/19 10:53:19;;;;;;;4.32;2.60;;;947.70;716.80;;;;;;5093320;28;20020;-66
2021/06/19 10:55:49;;;;;;;6.13;2.60;;;947.30;742.40;;;;;;5093180;28;20107;-62
2021/06/19 10:58:18;;;;;;;6.75;2.83;;;947.30;742.40;;;;;;5093157;28;20020;-75
2021/06/19 11:00:55;;;;;;;6.47;2.90;;;947.50;716.80;;;;;;5093076;28;20038;-70
2021/06/19 11:03:39;;;;;;;9.75;3.03;;;947.20;716.80;;;;;;5092978;28;20032;-74
2021/06/19 11:06:36;;;;;;;6.03;2.67;;;947.20;716.80;;;;;;5092507;28;20456;-66
2021/06/19 11:09:15;;;;;;;5.97;2.50;;;947.30;716.80;;;;;;5091489;28;20092;-62
2021/06/19 11:11:59;;;;;;;7.65;2.33;;;947.50;716.80;;;;;;5090571;28;20024;-75
2021/06/19 11:14:46;;;;;;;6.63;2.83;;;947.90;665.60;;;;;;5092346;28;20024;-62
2021/06/19 11:17:21;;;;;;;5.55;2.40;;;948.00;665.60;;;;;;5090567;28;20095;-62
2021/06/19 11:19:54;;;;;;;5.90;2.65;;;972.90;691.20;;;;;;5091932;28;20024;-62
2021/06/19 11:22:37;;;;;;;5.40;2.22;;;973.00;691.20;;;;;;5092210;28;20058;-61
2021/06/19 11:27:48;;;;;;;15.20;3.30;;;973.00;665.60;;;;;;5089974;28;20479;-62
2021/06/19 11:30:44;;;;;;;5.95;2.58;;;973.00;691.20;;;;;;5092243;28;20111;-62
2021/06/19 11:33:16;;;;;;;8.40;2.50;;;973.20;691.20;;;;;;5070121;28;20028;-62
2021/06/19 11:35:43;;;;;;;9.30;2.60;;;973.20;691.20;;;;;;5069974;28;20047;-62
2021/06/19 11:38:09;;;;;;;7.05;2.40;;;973.30;665.60;;;;;;5067493;28;20114;-62
2021/06/19 11:40:36;;;;;;;5.57;2.42;;;973.30;640.00;;;;;;5069468;28;20029;-66
2021/06/19 11:43:03;;;;;;;10.38;2.67;;;973.20;665.60;;;;;;5068800;28;20048;-65
2021/06/19 11:45:30;;;;;;;10.70;3.80;;;973.00;691.20;;;;;;5069994;28;20025;-63
2021/06/19 11:48:06;;;;;;;13.90;2.90;;;973.00;691.20;;;;;;5070541;28;20059;-67
2021/06/19 11:50:35;;;;;;;6.07;2.45;;;973.20;665.60;;;;;;5069293;28;20420;-67
2021/06/19 11:53:31;;;;;;;19.25;5.60;;;973.30;691.20;;;;;;5069326;28;20024;-68
2021/06/19 11:56:16;;;;;;;9.10;4.40;;;973.20;665.60;;;;;;5068937;28;20131;-62
2021/06/19 11:58:47;;;;;;;7.57;3.20;;;972.90;716.80;;;;;;5068237;28;20032;-64
2021/06/19 12:01:21;;;;;;;6.53;2.92;;;972.80;716.80;;;;;;5069312;28;20115;-66
2021/06/19 12:03:48;;;;;;;5.18;2.95;;;972.80;716.80;;;;;;5070258;28;20047;-68
2021/06/19 12:06:14;;;;;;;12.35;5.05;;;972.80;742.40;;;;;;5070984;28;20051;-62
2021/06/19 12:08:41;;;;;;;20.30;8.65;;;972.80;742.40;;;;;;5073275;28;20444;-62
2021/06/19 12:11:08;;;;;;;17.58;5.63;;;972.80;716.80;;;;;;5076957;28;20024;-63
2021/06/19 12:13:37;;;;;;;8.95;3.65;;;972.90;716.80;;;;;;5076874;28;20103;-62
2021/06/19 12:16:06;;;;;;;3.78;3.00;;;973.00;691.20;;;;;;5076930;28;20079;-64
2021/06/19 12:18:32;;;;;;;7.00;3.22;;;973.20;691.20;;;;;;5095920;28;20016;-64
2021/06/19 12:21:09;;;;;;;5.15;2.67;;;973.30;691.20;;;;;;5096366;28;20059;-63
2021/06/19 12:23:44;;;;;;;4.80;2.95;;;973.20;691.20;;;;;;5097138;28;20036;-65
2021/06/19 12:26:14;;;;;;;7.18;3.00;;;973.30;665.60;;;;;;5096204;28;20067;-62